Date,TemperatureHighF,TemperatureAvgF,TemperatureLowF,DewpointHighF,DewpointAvgF,DewpointLowF,HumidityHigh,HumidityAvg,HumidityLow,PressureMaxIn,PressureMinIn,WindSpeedMaxMPH,WindSpeedAvgMPH,GustSpeedMaxMPH,PrecipitationSumIn
2013-1-1,33.8,28.2,22.5,22.9,15.0,5.7,64,57,44,30.05,29.85,24,9,24,0.00
2013-1-2,31.4,25.6,18.7,23.5,16.9,11.4,79,69,61,30.18,29.97,20,9,20,0.00
2013-1-3,31.0,23.8,14.6,25.2,17.8,9.2,85,78,68,30.18,29.93,22,9,22,0.00
2013-1-4,34.4,32.1,30.3,27.0,23.8,19.6,79,71,63,30.00,29.86,26,15,26,0.00
2013-1-5,41.7,35.3,31.3,34.0,28.4,24.0,80,76,64,30.24,29.97,24,11,24,0.00
2013-1-6,40.4,36.9,31.6,40.2,33.6,27.6,100,88,80,30.06,29.85,28,11,28,0.00
2013-1-7,35.1,31.6,23.3,27.8,24.8,17.7,86,76,69,30.37,30.06,34,15,34,0.00
2013-1-8,55.4,36.0,32.9,52.5,28.6,25.5,90,75,64,30.28,29.91,27,8,27,0.00
2013-1-9,44.4,40.0,34.1,37.0,31.3,26.9,86,72,56,30.26,29.93,46,16,46,0.00
2013-1-10,46.9,41.1,38.5,36.0,30.7,25.3,80,67,55,30.58,30.25,28,6,28,0.00
2013-1-11,43.2,40.3,38.4,43.2,37.1,29.5,100,89,69,30.44,29.87,20,9,20,0.00
2013-1-12,49.9,45.9,42.1,49.0,44.0,39.8,100,93,72,29.96,29.88,16,4,16,0.00
2013-1-13,50.2,47.0,43.5,50.2,46.4,43.5,100,98,93,29.94,29.74,20,5,20,0.00
2013-1-14,46.0,37.0,32.1,46.0,28.8,21.7,100,73,63,30.37,29.78,24,10,24,0.00
2013-1-15,55.4,33.2,24.8,52.5,21.7,15.7,90,63,46,30.39,29.91,15,6,15,0.00
2013-1-16,55.4,35.4,30.4,31.9,24.6,19.9,74,65,47,30.33,29.75,22,8,22,0.00
2013-1-17,36.8,24.8,14.8,29.0,15.6,4.0,85,68,57,30.19,29.79,33,11,33,0.00
2013-1-18,33.9,24.7,15.4,28.7,16.4,10.9,92,72,53,30.40,30.01,32,13,32,0.00
2013-1-19,44.2,40.0,33.8,38.6,28.5,22.5,81,63,56,30.01,29.60,37,16,37,0.00
2013-1-20,44.4,30.7,22.2,36.9,18.8,8.0,81,61,52,30.06,29.43,56,18,56,0.00
2013-1-21,28.9,20.9,15.6,15.0,8.7,2.6,72,59,45,30.06,29.83,29,9,29,0.00
2013-1-22,21.0,14.5,6.9,14.4,6.5,-7.8,84,70,50,30.33,29.87,28,10,28,0.00
2013-1-23,19.0,15.7,5.0,3.2,0.4,-9.8,50,50,50,30.33,30.33,16,5,16,0.00
2013-1-24,16.6,14.3,8.2,1.2,-1.0,-6.8,50,50,50,30.33,30.33,34,8,34,0.00
2013-1-25,20.7,16.0,10.9,5.0,0.6,-4.1,50,50,50,30.33,30.33,12,5,12,0.00
2013-1-26,34.5,24.0,13.6,17.8,8.0,-1.6,50,50,50,30.33,30.33,10,4,10,0.00
2013-1-27,34.4,26.7,17.8,17.0,10.5,2.3,50,50,50,30.33,30.33,13,7,13,0.00
2013-1-28,36.8,34.0,30.3,19.9,17.3,13.9,50,50,50,30.33,30.33,20,6,20,0.00
2013-1-29,36.9,35.2,33.3,19.9,18.4,16.6,50,50,50,30.33,30.33,23,10,23,0.00
2013-1-30,52.4,47.0,40.3,34.1,29.3,23.0,50,50,50,30.33,30.33,27,9,27,0.00
2013-1-31,46.9,32.6,24.2,29.1,16.0,8.2,50,50,50,30.33,30.33,41,19,41,0.00
2013-2-1,29.0,23.3,18.1,12.6,7.4,2.6,50,50,50,30.33,30.33,29,11,29,0.00
2013-2-2,28.5,23.1,18.8,12.1,7.2,3.1,50,50,50,30.33,30.33,21,10,21,0.00
2013-2-3,31.0,23.9,16.9,14.4,7.9,1.3,50,50,50,30.33,30.33,15,7,15,0.00
2013-2-4,28.5,21.5,16.4,12.1,5.7,0.9,50,50,50,30.33,30.33,20,8,20,0.00
2013-2-5,28.6,26.1,16.3,12.1,10.0,0.9,50,50,50,30.33,30.33,16,7,16,0.00
2013-2-6,31.7,27.7,23.4,14.9,11.4,7.2,50,50,50,30.33,30.33,25,12,25,0.00
2013-2-7,29.4,21.7,18.9,12.5,5.9,3.1,50,50,50,30.33,30.33,30,19,30,0.00
2013-2-8,21.0,18.9,16.8,5.2,3.3,1.3,50,50,50,30.33,30.33,25,16,25,0.00
2013-2-9,36.9,25.7,15.0,19.8,9.6,-0.3,50,50,50,30.33,30.33,20,8,20,0.00
2013-2-10,38.5,25.5,18.0,21.3,9.4,2.5,50,50,50,30.33,30.33,16,6,16,0.00
2013-2-11,46.9,39.7,36.5,29.2,22.6,19.5,50,50,50,30.33,30.33,37,17,37,0.00
2013-2-12,42.2,36.2,33.6,24.1,19.3,16.9,50,50,50,30.33,30.33,26,14,26,0.00
2013-2-13,43.7,36.0,29.8,25.8,19.1,13.4,50,50,50,30.33,30.33,15,7,15,0.00
2013-2-14,38.9,34.0,28.1,21.5,17.3,11.8,50,50,50,30.33,30.33,23,10,23,0.00
2013-2-15,37.6,35.1,31.1,20.2,18.3,14.5,50,50,50,30.33,30.33,27,15,27,0.00
2013-2-16,29.0,25.8,23.2,12.5,9.7,7.2,50,50,50,30.33,30.33,18,9,18,0.00
2013-2-17,24.0,19.8,14.6,7.8,4.1,-0.7,50,50,50,30.33,30.33,31,15,31,0.00
2013-2-18,33.4,23.9,12.8,16.5,7.9,-3.0,50,50,50,30.33,30.33,24,8,24,0.00
2013-2-19,33.7,30.8,28.3,17.0,14.3,11.9,50,50,50,30.33,30.33,28,16,28,0.00
2013-2-20,32.7,26.5,22.8,15.9,10.4,6.8,50,50,50,30.33,30.33,29,17,29,0.00
2013-2-21,30.9,22.2,13.7,14.3,6.4,-1.6,50,50,50,30.33,30.33,26,13,26,0.00
2013-2-22,35.7,28.7,18.7,18.8,12.4,3.1,50,50,50,30.33,30.33,35,16,35,0.00
2013-2-23,40.4,36.7,32.4,22.9,19.8,15.7,50,50,50,30.33,30.33,22,10,22,0.00
2013-2-24,40.7,35.5,32.2,23.2,18.7,15.6,50,50,50,30.33,30.33,21,8,21,0.00
2013-2-25,41.4,37.1,34.4,24.0,20.1,17.7,50,50,50,30.33,30.33,18,6,18,0.00
2013-2-26,42.9,38.6,34.1,25.3,21.6,16.8,50,50,50,30.33,30.33,33,16,33,0.00
2013-2-27,36.6,34.9,33.6,19.7,18.2,16.9,50,50,50,30.33,30.33,35,12,35,0.00
2013-2-28,44.1,37.4,33.7,26.3,20.5,16.9,50,50,50,30.33,30.33,27,6,27,0.00
2013-3-1,38.9,32.1,25.2,21.8,15.6,9.0,50,50,50,30.33,30.33,26,14,26,0.00
2013-3-2,35.1,27.5,21.6,18.1,11.3,5.7,50,50,50,30.33,30.33,23,11,23,0.00
2013-3-3,33.2,29.3,25.9,16.2,12.9,9.8,50,50,50,30.33,30.33,25,13,25,0.00
2013-3-4,38.9,30.0,23.2,37.4,13.6,7.3,100,50,50,30.33,30.33,26,13,26,0.00
2013-3-5,37.2,31.4,24.1,20.1,14.9,8.1,50,50,50,30.33,30.33,23,7,23,0.00
2013-3-6,44.2,36.4,29.0,26.6,19.5,12.7,50,50,50,30.33,30.33,18,8,18,0.00
2013-3-7,46.1,39.4,35.0,28.4,22.3,18.1,50,50,50,30.33,30.33,12,5,12,0.00
2013-3-8,50.9,42.1,35.9,32.4,24.8,19.0,50,50,50,30.33,30.33,21,10,21,0.00
2013-3-9,49.4,41.9,34.7,31.3,24.6,17.9,50,50,50,30.33,30.33,15,6,15,0.00
2013-3-10,48.9,44.9,39.3,31.0,27.4,22.1,50,50,50,30.33,30.33,13,5,13,0.00
2013-3-11,45.3,43.6,41.9,27.7,26.2,24.5,50,50,50,30.33,30.33,16,5,16,0.00
2013-3-12,41.9,40.3,38.7,24.5,23.1,21.5,50,50,50,30.33,30.33,23,12,23,0.00
2013-3-13,41.2,35.0,25.1,23.9,18.2,9.0,50,50,50,30.33,30.33,34,15,34,0.00
2013-3-14,38.3,30.2,22.5,21.3,13.8,6.5,50,50,50,30.33,30.33,39,17,39,0.00
2013-3-15,47.2,36.7,30.2,29.4,19.8,13.7,50,50,50,30.33,30.33,34,12,34,0.00
2013-3-16,34.0,29.1,24.4,17.2,12.7,8.4,50,50,50,30.33,30.33,14,7,14,0.00
2013-3-17,37.7,31.6,24.9,20.3,15.1,8.9,50,50,50,30.33,30.33,20,8,20,0.00
2013-3-18,35.1,29.5,20.9,18.3,13.1,5.2,50,50,50,30.33,30.33,37,20,37,0.00
2013-3-19,36.9,34.8,31.1,20.0,18.0,14.5,50,50,50,30.33,30.33,28,15,28,0.00
2013-3-20,40.4,35.6,30.8,23.1,18.8,14.3,50,50,50,30.33,30.33,24,14,24,0.00
2013-3-21,39.4,34.1,26.5,22.1,17.4,10.3,50,50,50,30.33,30.33,24,12,24,0.00
2013-3-22,44.1,36.1,29.1,26.4,19.2,12.8,50,50,50,30.33,30.33,25,13,25,0.00
2013-3-23,47.1,38.9,32.1,29.2,21.8,15.5,50,50,50,30.33,30.33,26,14,26,0.00
2013-3-24,49.2,38.7,30.6,31.2,21.7,14.0,50,50,50,30.33,30.33,16,7,15,0.00
2013-3-25,47.9,40.1,33.9,29.9,23.0,17.1,50,50,50,30.33,30.33,22,9,22,0.00
2013-3-26,54.2,45.1,39.2,35.9,27.6,22.1,50,50,50,30.33,30.33,25,13,25,0.00
2013-3-27,50.8,42.0,38.1,32.6,24.7,21.0,50,50,50,30.33,30.33,24,14,24,0.00
2013-3-28,51.2,43.3,37.8,32.9,25.6,0.0,50,49,50,30.33,30.33,20,12,20,0.00
2013-3-29,56.7,46.6,40.6,38.1,28.9,23.3,50,50,50,30.33,30.33,23,9,23,0.00
2013-3-30,52.1,45.7,36.6,34.0,28.1,19.6,50,50,50,30.33,30.33,17,8,17,0.00
2013-3-31,50.0,46.0,41.2,31.7,28.4,23.9,50,50,50,30.33,30.33,15,5,15,0.00
2013-4-1,44.7,39.0,30.2,27.1,21.9,13.7,50,50,50,30.33,30.33,43,20,43,0.00
2013-4-2,40.6,33.5,26.3,23.0,16.8,10.0,50,50,50,30.33,30.33,34,16,34,0.00
2013-4-3,43.2,34.4,26.9,43.0,22.3,0.0,100,65,50,30.33,29.91,30,14,30,0.00
2013-4-4,49.7,43.9,32.5,34.6,25.9,0.0,100,48,50,30.33,29.91,27,14,27,0.00
2013-4-5,48.9,42.6,34.1,31.0,25.3,17.3,50,50,50,30.33,30.33,33,16,33,0.00
2013-4-6,46.4,38.9,30.3,28.8,21.8,13.9,50,50,50,30.33,30.33,18,8,18,0.00
2013-4-7,62.6,47.4,38.4,43.7,29.7,21.4,50,50,50,30.33,30.33,37,14,37,0.00
2013-4-8,52.4,45.8,42.3,33.9,28.2,24.9,50,50,50,30.33,30.33,20,9,20,0.00
2013-4-9,58.0,49.8,42.4,39.5,31.9,25.1,50,50,50,30.33,30.33,30,7,30,0.00
2013-4-10,47.9,44.6,41.9,30.0,27.1,24.6,50,50,50,30.33,29.91,18,6,18,0.00
2013-4-11,42.0,36.5,33.1,24.7,19.6,16.4,50,50,50,30.33,30.33,28,13,28,0.00
2013-4-12,41.1,37.3,33.6,23.9,20.3,16.8,50,50,50,30.33,30.33,35,18,35,0.00
2013-4-13,46.7,42.0,40.4,28.9,24.7,23.1,50,50,50,30.33,30.33,24,10,24,0.00
2013-4-14,50.4,43.6,36.3,32.1,26.2,19.3,50,50,50,30.33,30.33,22,9,22,0.00
2013-4-15,51.1,45.9,38.9,33.0,28.3,21.8,50,50,50,30.33,30.33,21,9,21,0.00
2013-4-16,59.2,51.7,47.0,40.5,33.7,29.3,50,50,50,30.33,30.33,25,9,25,0.00
2013-4-17,57.9,49.4,40.7,39.3,31.5,23.4,50,50,50,30.33,30.33,15,6,15,0.00
2013-4-18,60.4,49.8,42.4,41.5,31.8,25.1,50,50,50,30.33,30.33,25,9,25,0.00
2013-4-19,58.7,52.7,45.3,40.1,34.6,27.6,50,50,50,30.33,30.33,35,14,35,0.00
2013-4-20,45.4,40.8,35.5,27.8,23.6,18.4,50,50,50,30.33,30.33,36,17,36,0.00
2013-4-21,49.2,41.4,32.0,31.2,24.2,15.4,50,50,50,30.33,30.33,13,6,13,0.00
2013-4-22,53.2,48.4,36.6,34.9,30.6,19.7,50,50,50,30.33,30.33,18,11,18,0.00
2013-4-23,54.7,47.7,42.2,36.2,30.0,24.8,50,50,50,30.33,30.33,17,9,17,0.00
2013-4-24,49.6,46.2,40.2,31.7,28.6,22.9,50,50,50,30.33,30.33,43,10,43,0.00
2013-4-25,56.2,47.4,37.3,37.7,29.7,20.3,50,50,50,30.33,30.33,30,9,30,0.00
2013-4-26,58.6,50.7,40.4,39.7,32.7,23.0,50,50,50,30.33,30.33,20,8,20,0.00
2013-4-27,56.7,49.6,43.6,38.2,31.7,26.2,50,50,50,30.33,30.33,12,6,12,0.00
2013-4-28,60.2,53.6,47.7,41.4,35.4,29.9,50,50,50,30.33,30.33,18,8,18,0.00
2013-4-29,51.4,48.6,45.8,49.5,33.0,0.0,100,57,50,30.33,29.91,13,6,13,0.00
2013-4-30,60.6,53.2,48.6,41.8,35.0,30.8,50,50,50,30.33,30.33,14,5,14,0.00
2013-5-1,67.6,59.1,51.4,48.3,40.5,33.4,50,50,50,30.33,30.33,13,5,13,0.00
2013-5-2,68.5,60.6,52.1,48.8,41.9,33.9,50,50,50,30.33,30.33,17,6,16,0.00
2013-5-3,65.7,59.7,54.2,46.4,41.0,35.9,50,50,50,30.33,30.33,14,7,14,0.00
2013-5-4,70.8,63.1,58.5,51.2,44.2,39.9,50,50,50,30.33,30.33,12,5,12,0.00
2013-5-5,78.9,62.6,54.0,58.7,43.7,35.8,50,50,50,30.33,30.33,9,4,9,0.00
2013-5-6,78.6,62.9,54.6,58.2,43.9,35.9,50,50,50,30.33,30.33,8,3,8,0.00
2013-5-7,76.0,67.4,53.8,56.0,48.1,35.6,50,50,50,30.33,30.33,9,3,9,0.00
2013-5-8,73.5,62.2,59.3,53.4,43.3,40.7,50,50,50,30.33,30.33,12,5,12,0.00
2013-5-9,72.5,67.3,61.2,52.7,48.0,42.4,50,50,50,30.33,30.33,15,5,15,0.00
2013-5-10,60.4,54.7,52.0,41.1,36.4,33.8,50,50,50,30.33,30.33,20,8,20,0.00
2013-5-11,60.5,53.8,49.1,41.5,35.6,31.2,50,50,50,30.33,30.33,24,14,24,0.00
2013-5-12,70.1,48.2,40.9,49.9,30.4,23.6,50,50,50,30.33,30.33,43,20,43,0.00
2013-5-13,62.0,51.2,46.1,42.4,33.2,28.1,50,50,50,30.33,30.33,28,12,28,0.00
2013-5-14,60.0,50.5,42.6,41.0,32.5,25.1,50,50,50,30.33,30.33,12,4,12,0.00
2013-5-15,73.8,63.3,43.6,53.8,44.3,26.2,50,50,50,30.33,30.33,40,17,40,0.00
2013-5-16,83.5,75.2,66.1,62.8,55.3,46.7,50,50,50,30.33,30.33,36,16,36,0.00
2013-5-17,68.2,64.6,58.5,48.7,45.5,39.8,50,50,50,30.33,30.33,32,8,32,0.00
2013-5-18,66.0,60.0,54.9,46.5,41.3,36.6,50,50,50,30.33,30.33,14,7,14,0.00
2013-5-19,62.9,58.4,52.6,44.0,39.8,34.4,50,50,50,30.33,29.53,12,5,12,0.00
2013-5-20,75.0,64.3,56.6,55.0,45.3,38.1,50,50,50,29.53,29.53,32,2,33,0.00
2013-5-21,72.5,64.9,60.8,52.7,45.8,41.9,50,50,50,30.33,29.53,23,3,24,0.00
2013-5-22,65.3,59.8,56.7,46.0,41.1,38.3,50,50,50,29.53,29.53,16,2,17,0.00
2013-5-23,74.3,60.7,44.6,54.2,41.9,26.8,50,50,50,29.53,29.53,29,8,29,0.00
2013-5-24,60.5,50.6,41.7,41.6,32.1,24.4,50,46,1,30.33,29.53,30,11,30,0.00
2013-5-25,73.9,56.7,43.7,53.9,38.2,26.3,50,50,50,29.53,29.53,30,10,31,0.00
2013-5-26,72.8,61.3,47.0,52.3,42.5,29.3,50,50,50,29.53,29.53,28,9,28,0.00
2013-5-27,81.2,64.1,50.6,60.8,36.7,0.0,50,41,50,30.33,29.53,20,6,18,0.00
2013-5-28,60.9,53.5,50.8,0.0,0.0,0.0,0,0,100,0.00,0.00,20,7,20,0.00
2013-5-29,79.3,69.9,58.7,0.0,0.0,0.0,0,0,100,0.00,0.00,23,7,23,0.00
2013-5-30,77.2,72.7,63.1,0.0,0.0,0.0,0,0,100,0.00,0.00,17,4,17,0.00
2013-5-31,82.0,74.9,64.1,0.0,0.0,0.0,0,0,100,0.00,0.00,29,6,29,0.00
2013-6-1,79.6,70.9,62.3,0.0,0.0,0.0,0,0,100,0.00,0.00,20,6,20,0.00
2013-6-2,74.8,66.2,57.4,0.0,0.0,0.0,0,0,100,0.00,0.00,27,14,27,0.00
2013-6-3,84.3,63.1,52.8,0.0,0.0,0.0,0,0,100,0.00,0.00,24,11,24,0.00
2013-6-4,79.5,65.7,51.7,55.5,24.5,0.0,50,25,50,30.33,0.00,22,10,22,0.00
2013-6-5,77.3,61.9,57.6,50.3,43.0,37.3,50,50,50,30.33,30.33,10,5,10,0.00
2013-6-6,58.9,54.9,51.2,40.2,36.6,33.2,50,50,50,30.33,30.33,23,12,23,0.00
2013-6-7,64.0,59.1,54.1,45.0,40.5,35.9,50,50,50,30.33,30.33,13,5,13,0.00
2013-6-8,69.2,62.4,59.3,49.8,43.5,40.7,50,50,50,30.33,30.33,17,6,17,0.00
2013-6-9,82.8,68.9,56.8,62.2,49.5,38.3,50,50,50,30.33,30.33,15,6,15,0.00
2013-6-10,66.3,58.0,55.2,43.7,39.5,36.9,50,50,50,30.33,30.33,22,13,22,0.00
2013-6-11,79.0,67.6,57.4,58.7,48.3,38.9,50,50,50,30.33,30.33,24,9,24,0.00
2013-6-12,89.4,71.7,62.2,68.3,52.1,43.3,50,50,50,30.33,30.33,8,4,8,0.00
2013-6-13,74.3,65.4,61.9,54.3,46.3,43.0,50,50,50,30.33,30.33,14,6,14,0.00
2013-6-14,82.3,70.2,60.5,61.7,50.7,41.8,50,50,50,30.33,30.33,23,10,23,0.00
2013-6-15,74.7,72.2,69.8,54.8,52.5,50.1,50,50,50,30.33,30.33,20,7,20,0.00
2013-6-16,83.1,70.9,62.4,62.1,51.3,43.5,50,50,50,30.33,30.33,23,7,23,0.00
2013-6-17,89.3,73.3,64.6,68.2,53.6,45.3,50,50,50,30.33,30.33,20,5,20,0.00
2013-6-18,76.7,67.0,57.4,56.5,47.7,38.8,50,50,50,30.33,30.33,14,6,14,0.00
2013-6-19,78.3,67.1,55.5,58.0,47.8,37.1,50,50,50,30.33,30.33,16,6,16,0.00
2013-6-20,86.3,70.0,57.3,65.5,50.5,38.8,50,50,50,30.33,30.33,7,3,7,0.00
2013-6-21,83.8,73.1,60.1,62.9,53.4,41.3,50,50,50,30.33,30.33,8,3,8,0.00
2013-6-22,74.1,69.2,65.5,54.3,49.8,46.3,50,50,50,30.33,30.33,10,3,10,0.00
2013-6-23,86.7,77.7,67.1,65.8,57.5,47.8,50,50,50,30.33,30.33,21,5,21,0.00
2013-6-24,90.0,80.6,72.6,68.9,60.3,52.9,50,50,50,30.33,30.33,22,8,22,0.00
2013-6-25,82.8,75.7,71.0,62.3,55.7,51.3,50,50,50,30.33,30.33,22,6,22,0.00
2013-6-26,87.1,77.4,70.2,66.2,57.3,50.7,50,50,50,30.33,30.33,18,7,18,0.00
2013-6-27,77.2,73.2,69.4,57.1,53.4,49.9,50,50,50,30.33,30.33,7,2,7,0.00
2013-6-28,72.0,68.5,65.7,52.3,49.1,46.4,50,50,50,30.33,30.33,9,2,9,0.00
2013-6-29,78.4,70.7,64.8,58.2,51.2,45.7,50,50,50,30.33,30.33,20,6,20,0.00
2013-6-30,85.9,75.4,64.4,64.8,55.5,45.3,50,50,50,30.33,30.33,14,5,14,0.00
2013-7-1,78.2,70.4,64.9,58.0,50.9,45.8,50,50,50,30.33,30.33,22,10,22,0.00
2013-7-2,79.8,70.7,63.7,59.5,51.1,44.7,50,50,50,30.33,30.33,15,5,15,0.00
2013-7-3,81.0,73.3,66.6,60.6,53.5,47.4,50,50,50,30.33,30.33,9,3,9,0.00
2013-7-4,83.7,75.5,70.6,62.9,55.6,50.2,50,50,50,30.33,30.33,27,6,27,0.00
2013-7-5,81.0,75.2,72.0,60.2,55.2,52.3,50,50,50,30.33,30.33,12,4,12,0.00
2013-7-6,86.7,78.2,70.1,65.8,58.0,50.6,50,50,50,30.33,30.33,13,4,13,0.00
2013-7-7,85.8,77.7,73.8,65.0,57.6,53.9,50,50,50,30.33,30.33,26,7,26,0.00
2013-7-8,88.7,78.7,72.8,67.7,58.5,53.1,50,50,50,30.33,30.33,15,4,15,0.00
2013-7-9,83.3,76.9,72.1,62.7,56.9,52.4,50,50,50,30.33,30.33,6,2,6,0.00
2013-7-10,91.5,79.8,72.6,70.2,59.5,52.8,50,50,50,30.33,30.33,26,12,26,0.00
2013-7-11,97.3,76.1,65.7,65.3,56.1,46.5,50,50,50,30.33,30.33,23,12,23,0.00
2013-7-12,87.8,77.2,65.2,66.8,57.1,46.1,50,50,50,30.33,30.33,14,4,14,0.00
2013-7-13,90.3,78.5,66.5,68.0,58.3,47.3,50,50,50,30.33,30.33,9,4,9,0.00
2013-7-14,98.0,82.9,70.6,76.1,62.4,51.1,50,50,50,30.33,30.33,10,4,10,0.00
2013-7-15,95.3,86.7,75.9,73.7,65.8,55.9,50,50,50,30.33,30.33,14,5,14,0.00
2013-7-16,96.8,88.1,77.9,74.8,67.1,57.8,50,50,50,30.33,30.33,16,7,16,0.00
2013-7-17,99.0,89.8,79.7,77.1,68.7,59.4,50,50,50,30.33,30.33,24,7,24,0.00
2013-7-18,100.4,89.2,81.7,78.4,68.1,61.2,50,50,50,30.33,30.33,13,5,13,0.00
2013-7-19,94.7,84.1,73.7,72.9,63.4,53.6,50,50,50,30.33,30.33,45,11,45,0.00
2013-7-20,89.9,77.8,69.3,68.8,57.7,49.9,50,50,50,30.33,30.33,20,9,20,0.00
2013-7-21,86.2,74.6,63.9,65.4,54.7,44.9,50,50,50,30.33,30.33,12,5,12,0.00
2013-7-22,81.9,70.9,64.7,59.8,51.3,45.4,50,50,50,30.33,30.33,14,6,14,0.00
2013-7-23,89.9,74.8,66.0,68.8,54.9,46.8,50,50,50,30.33,30.33,30,9,30,0.00
2013-7-24,81.7,69.6,61.7,61.2,50.1,42.9,50,50,50,30.33,30.33,22,12,22,0.00
2013-7-25,90.5,73.5,60.3,68.9,53.7,41.5,50,50,50,30.33,30.33,12,3,12,0.00
2013-7-26,93.0,74.8,62.1,71.6,54.9,43.2,50,50,50,30.33,30.33,8,4,8,0.00
2013-7-27,72.8,68.8,63.7,52.9,49.4,44.6,50,50,50,30.33,30.33,18,6,18,0.00
2013-7-28,82.5,72.4,65.9,62.0,52.8,46.6,50,50,50,30.33,30.33,21,11,21,0.00
2013-7-29,77.8,69.1,62.7,57.1,49.7,43.8,50,50,50,30.33,30.33,16,6,16,0.00
2013-7-30,79.7,71.5,60.7,59.4,51.9,41.9,50,50,50,30.33,30.33,17,6,17,0.00
2013-7-31,81.8,71.7,63.1,61.3,52.0,44.1,50,50,50,30.33,30.33,9,3,9,0.00
2013-8-1,84.7,72.4,62.7,63.7,52.7,43.8,50,50,50,30.33,30.33,21,7,21,0.00
2013-8-2,82.8,71.4,64.2,62.1,51.8,45.2,50,50,50,30.33,30.33,13,5,13,0.00
2013-8-3,86.1,74.4,62.3,64.9,54.6,43.4,50,50,50,30.33,30.33,23,10,23,0.00
2013-8-4,82.3,72.0,62.9,61.7,52.4,43.9,50,50,50,30.33,30.33,27,13,27,0.00
2013-8-5,80.8,71.5,59.6,60.2,51.9,40.8,50,50,50,30.33,30.33,20,10,20,0.00
2013-8-6,80.8,71.2,64.8,60.0,51.6,45.6,50,50,50,30.33,30.33,12,5,12,0.00
2013-8-7,79.1,71.6,65.7,58.9,52.0,46.5,50,50,50,30.33,30.33,17,5,17,0.00
2013-8-8,88.3,78.5,70.0,67.2,58.3,50.4,50,50,50,30.33,30.33,15,6,15,0.00
2013-8-9,85.0,75.9,69.0,64.3,55.9,49.4,50,50,50,30.33,30.33,20,9,20,0.00
2013-8-10,84.5,74.3,65.2,63.5,54.5,46.0,50,50,50,30.33,30.33,20,8,20,0.00
2013-8-11,83.2,72.7,60.9,62.5,53.0,42.1,50,50,50,30.33,30.33,16,5,16,0.00
2013-8-12,80.1,73.0,63.5,59.7,53.3,44.5,50,50,50,30.33,30.33,12,4,12,0.00
2013-8-13,79.8,70.2,59.9,59.5,50.7,41.2,50,50,50,30.33,30.33,26,10,26,0.00
2013-8-14,77.6,68.1,58.5,57.4,48.8,39.8,50,50,50,30.33,30.33,27,14,27,0.00
2013-8-15,81.1,69.5,59.1,60.7,50.1,40.4,50,50,50,30.33,30.33,23,8,23,0.00
2013-8-16,80.0,71.9,60.6,59.5,52.3,41.8,50,50,50,30.33,30.33,15,6,15,0.00
2013-8-17,78.8,72.4,64.3,58.4,52.7,45.3,50,50,50,30.33,30.33,8,3,8,0.00
2013-8-18,80.8,73.5,64.3,60.4,53.7,45.3,50,50,50,30.33,30.33,8,3,8,0.00
2013-8-19,83.5,76.0,66.6,62.9,56.0,47.4,50,50,50,30.33,30.33,18,6,18,0.00
2013-8-20,84.2,76.4,67.8,63.5,56.4,48.5,50,50,50,30.33,30.33,21,7,21,0.00
2013-8-21,87.7,78.2,69.6,66.6,58.0,50.1,50,50,50,30.33,30.33,20,8,20,0.00
2013-8-22,87.8,78.2,69.8,66.5,58.0,50.1,50,50,50,30.33,30.33,29,10,29,0.00
2013-8-23,83.1,73.5,65.8,62.5,53.7,46.6,50,50,50,30.33,30.33,14,6,14,0.00
2013-8-24,83.0,73.0,61.1,62.0,53.3,42.3,50,50,50,30.33,30.33,12,4,12,0.00
2013-8-25,84.0,74.6,63.9,63.2,54.7,44.9,50,50,50,30.33,30.33,24,6,24,0.00
2013-8-26,76.7,72.9,70.3,56.6,53.2,50.8,50,50,50,30.33,30.33,21,6,21,0.00
2013-8-27,84.8,76.4,69.5,64.1,56.4,49.9,50,50,50,30.33,30.33,12,3,12,0.00
2013-8-28,84.4,78.1,73.1,63.7,58.0,53.3,50,50,50,30.33,30.33,9,2,9,0.00
2013-8-29,89.8,81.0,72.8,68.5,60.6,53.1,50,50,50,30.33,30.33,9,3,9,0.00
2013-8-30,85.6,78.5,73.2,64.8,58.4,53.4,50,50,50,30.33,30.33,16,5,16,0.00
2013-8-31,81.3,75.2,72.4,60.8,55.3,52.7,50,50,50,30.33,30.33,10,3,10,0.00
2013-9-1,80.3,74.0,68.1,60.0,54.2,48.8,50,50,50,30.33,30.33,16,6,16,0.00
2013-9-2,81.1,73.8,66.6,60.6,54.0,47.4,50,50,50,30.33,30.33,26,8,26,0.00
2013-9-3,75.0,68.5,62.6,54.8,49.1,43.6,50,50,50,30.33,30.33,20,9,20,0.00
2013-9-4,85.0,71.2,59.2,63.7,51.6,40.6,50,50,50,30.33,30.33,23,9,23,0.00
2013-9-5,72.6,64.7,57.6,52.9,45.6,38.8,50,50,50,30.33,30.33,26,10,26,0.00
2013-9-6,72.8,64.3,51.4,52.9,45.2,33.3,50,50,50,30.33,30.33,17,9,17,0.00
2013-9-7,69.6,65.1,62.0,50.1,46.0,43.0,50,50,50,30.33,30.33,22,6,22,0.00
2013-9-8,75.5,67.7,61.0,55.4,48.4,42.1,50,50,50,30.33,30.33,22,7,22,0.00
2013-9-9,71.0,62.4,56.1,51.1,43.5,37.7,50,50,50,30.33,30.33,8,3,8,0.00
2013-9-10,84.0,73.6,62.3,63.2,53.8,43.3,50,50,50,30.33,30.33,25,9,25,0.00
2013-9-11,87.4,78.5,70.1,66.5,58.3,50.0,50,50,50,30.33,30.33,22,8,22,0.00
2013-9-12,78.3,71.7,64.9,58.0,52.1,45.8,50,50,50,30.33,30.33,25,9,25,0.00
2013-9-13,64.8,57.5,52.9,45.6,39.0,34.8,50,50,50,30.33,30.33,24,10,24,0.00
2013-9-14,68.0,58.9,49.1,48.5,40.3,31.2,50,50,50,30.33,30.33,18,7,18,0.00
2013-9-15,67.3,61.0,55.4,48.0,42.2,37.1,50,50,50,30.33,30.33,17,6,17,0.00
2013-9-16,63.3,56.9,50.1,44.3,38.5,32.1,50,50,50,30.33,30.33,20,7,20,0.00
2013-9-17,68.0,56.5,46.3,48.7,38.1,28.7,50,50,50,30.33,30.33,12,5,12,0.00
2013-9-18,72.0,61.7,51.1,52.3,42.9,33.1,50,50,50,30.33,30.33,10,4,10,0.00
2013-9-19,71.8,63.6,55.6,52.1,44.6,37.1,50,50,50,30.33,30.33,12,4,12,0.00
2013-9-20,74.5,67.7,61.8,54.6,48.4,43.0,50,50,50,30.33,30.33,8,2,8,0.00
2013-9-21,69.8,64.1,54.8,50.3,45.0,36.4,50,50,50,30.33,30.33,25,8,25,0.00
2013-9-22,64.5,56.4,51.1,45.1,37.9,33.1,50,50,50,30.33,30.33,22,10,22,0.00
2013-9-23,67.0,57.6,49.1,47.7,39.1,31.2,50,50,50,30.33,30.33,16,7,16,0.00
2013-9-24,67.3,57.9,47.1,48.0,39.4,29.4,50,50,50,30.33,30.33,17,7,17,0.00
2013-9-25,71.5,61.5,51.0,51.8,42.6,32.9,50,50,50,30.33,30.33,12,5,12,0.00
2013-9-26,72.3,63.6,53.5,52.3,44.6,35.3,50,50,50,30.33,30.33,8,4,8,0.00
2013-9-27,70.4,63.4,55.6,50.9,44.4,37.2,50,50,50,30.33,30.33,12,4,12,0.00
2013-9-28,71.3,62.6,55.9,51.4,43.7,37.5,50,50,50,30.33,30.33,15,7,15,0.00
2013-9-29,73.8,65.5,59.5,54.0,46.4,40.8,50,50,50,30.33,30.33,13,6,13,0.00
2013-9-30,70.1,66.0,63.9,50.6,46.8,44.9,50,50,50,30.33,30.33,14,5,14,0.00
2013-10-1,73.3,66.2,58.5,53.4,47.0,39.9,50,50,50,30.33,30.33,21,8,21,0.00
2013-10-2,80.8,70.8,63.2,60.4,51.3,44.2,50,50,50,30.33,30.33,25,9,25,0.00
2013-10-3,73.0,64.9,55.2,53.1,45.8,36.9,50,50,50,30.33,30.33,15,5,15,0.00
2013-10-4,64.1,62.3,60.6,45.1,43.4,41.8,50,50,50,30.33,30.33,16,7,16,0.00
2013-10-5,65.7,61.7,58.4,46.4,42.9,39.8,50,50,50,30.33,30.33,16,8,16,0.00
2013-10-6,64.9,61.2,57.0,45.8,42.4,38.5,50,50,50,30.33,30.33,22,13,22,0.00
2013-10-7,65.3,60.9,54.3,46.2,42.1,35.9,50,50,50,30.33,30.33,31,11,31,0.00
2013-10-8,67.5,58.2,49.0,48.0,39.7,31.1,50,50,50,30.33,30.33,14,6,14,0.00
2013-10-9,66.5,58.0,49.2,47.1,39.5,31.3,50,50,50,30.33,30.33,13,6,13,0.00
2013-10-10,67.0,58.6,51.8,47.7,40.0,33.6,50,50,50,30.33,30.33,12,5,12,0.00
2013-10-11,67.5,58.6,49.2,48.0,40.0,31.3,50,50,50,30.33,30.33,9,4,9,0.00
2013-10-12,67.9,60.1,51.2,48.6,41.4,33.2,50,50,50,30.33,30.33,15,7,15,0.00
2013-10-13,62.4,61.0,58.3,43.5,42.2,39.7,50,50,50,30.33,30.33,16,4,16,0.00
2013-10-14,74.0,64.2,51.9,54.1,45.2,33.8,50,50,50,30.33,30.33,20,8,20,0.00
2013-10-15,74.4,73.2,71.4,54.5,53.5,51.8,50,50,50,30.33,30.33,18,7,18,0.00
2013-10-16,77.8,75.3,73.9,57.4,55.3,54.1,50,50,50,30.33,30.33,24,10,24,0.00
2013-10-17,76.5,74.7,73.7,56.5,54.8,53.9,50,50,50,30.33,30.33,16,6,16,0.00
2013-10-18,83.7,75.3,73.9,63.0,55.4,54.1,50,50,50,30.33,30.33,22,8,22,0.00
2013-10-19,75.6,73.5,72.0,55.6,53.7,52.3,50,50,50,30.33,30.33,16,4,16,0.00
2013-10-20,81.0,71.9,70.1,60.1,52.3,50.6,50,50,50,30.33,30.33,20,7,20,0.00
2013-10-21,72.5,71.3,70.3,52.7,51.7,50.8,50,50,50,30.33,30.33,23,10,23,0.00
2013-10-22,88.7,73.2,71.6,67.4,53.4,52.0,50,50,50,30.33,30.33,27,11,27,0.00
2013-10-23,85.7,72.6,71.3,64.7,52.9,51.7,50,50,50,30.33,30.33,28,7,28,0.00
2013-10-24,78.0,71.0,69.8,55.3,51.4,50.3,50,50,50,30.33,30.33,21,11,21,0.00
2013-10-25,82.8,71.6,69.3,62.1,52.0,49.9,50,50,50,30.33,30.33,20,8,20,0.00
2013-10-26,75.3,71.8,70.4,55.4,52.2,50.9,50,50,50,30.33,30.33,29,14,29,0.00
2013-10-27,75.0,71.3,70.4,55.1,51.7,50.9,50,50,50,30.33,30.33,18,7,18,0.00
2013-10-28,78.0,71.2,69.9,57.3,51.6,50.4,50,50,50,30.33,30.33,23,8,23,0.00
2013-10-29,81.2,70.3,68.4,60.8,50.7,35.0,50,50,50,30.33,30.33,10,5,10,0.00
2013-10-30,71.0,60.6,43.1,51.2,41.8,25.6,50,50,50,30.33,30.33,8,4,8,0.00
2013-10-31,55.0,48.5,43.2,36.7,30.7,25.8,50,50,50,30.33,30.33,20,6,20,0.00
2013-11-1,57.6,53.7,46.9,39.0,35.4,29.0,50,50,50,30.33,30.33,38,16,38,0.00
2013-11-2,47.6,43.4,34.3,29.7,26.0,17.5,50,50,50,30.33,30.33,17,6,17,0.00
2013-11-3,41.2,33.8,27.6,23.9,17.1,11.4,50,50,50,30.33,30.33,16,6,16,0.00
2013-11-4,43.4,37.0,28.3,25.8,20.1,12.0,50,50,50,30.33,30.33,24,9,24,0.00
2013-11-5,58.9,44.7,36.5,32.9,27.2,15.3,50,50,50,30.33,30.33,12,3,12,0.00
2013-11-6,54.5,50.0,46.1,35.9,32.1,28.4,50,50,50,30.33,30.33,29,8,29,0.00
2013-11-7,54.2,44.8,39.3,35.8,27.3,22.1,50,50,50,30.33,30.33,35,13,35,0.00
2013-11-8,47.2,40.3,33.6,29.3,23.2,16.8,50,50,50,30.33,30.33,35,11,35,0.00
2013-11-9,49.2,43.3,38.6,31.2,25.9,21.5,50,50,50,30.33,30.33,23,8,23,0.00
2013-11-10,49.9,44.9,40.7,31.5,27.4,23.3,50,50,50,30.33,30.33,43,18,43,0.00
2013-11-11,43.7,37.2,29.3,26.3,20.2,12.9,50,50,50,30.33,30.33,31,16,31,0.00
2013-11-12,35.6,29.3,23.6,18.5,13.0,7.7,50,50,50,30.33,30.33,26,11,26,0.00
2013-11-13,40.2,32.5,22.6,22.8,15.9,6.7,50,50,50,30.33,30.33,30,12,30,0.00
2013-11-14,49.7,41.5,33.8,31.3,24.3,17.1,50,50,50,30.33,30.33,24,13,24,0.00
2013-11-15,52.1,44.4,39.4,33.9,26.9,22.3,50,50,50,30.33,30.33,20,9,20,0.00
2013-11-16,48.4,44.3,38.3,30.6,26.8,21.3,50,50,50,30.33,30.33,10,4,10,0.00
2013-11-17,52.2,47.6,44.3,33.7,29.9,26.8,50,50,50,30.33,30.33,31,6,31,0.00
2013-11-18,50.4,44.7,37.5,32.1,27.1,20.4,50,50,50,30.33,30.33,43,21,43,0.00
2013-11-19,40.9,35.4,26.9,23.4,18.6,10.7,50,50,50,30.33,30.33,29,13,29,0.00
2013-11-20,39.2,32.3,24.2,22.1,15.7,8.2,50,50,50,30.33,30.33,26,11,26,0.00
2013-11-21,42.9,40.8,37.5,25.5,23.5,20.4,50,50,50,30.33,30.33,20,6,20,0.00
2013-11-22,48.1,41.4,30.3,30.3,24.2,13.7,50,50,50,30.33,30.33,39,9,39,0.00
2013-11-23,36.7,28.2,15.2,19.3,11.9,-0.3,50,50,50,30.33,30.33,44,16,44,0.00
2013-11-24,27.6,19.0,12.0,11.2,3.3,-3.4,50,50,50,30.33,30.33,25,12,25,0.00
2013-11-25,35.7,29.6,19.2,18.8,13.2,3.6,50,50,50,30.33,30.33,34,16,34,0.00
2013-11-26,37.2,34.2,32.1,20.0,17.5,15.5,50,50,50,30.33,30.33,20,7,20,0.00
2013-11-27,34.7,30.7,21.2,17.8,14.2,5.0,50,50,50,30.33,30.33,38,16,38,0.00
2013-11-28,34.7,24.4,18.4,17.9,8.4,2.8,50,50,50,30.33,30.33,26,8,26,0.00
2013-11-29,31.1,22.8,14.6,14.6,6.9,-0.8,50,50,50,30.33,30.33,12,5,12,0.00
2013-11-30,36.2,32.1,20.9,19.2,15.5,5.2,50,50,50,30.33,30.33,25,11,25,0.00
2013-12-1,48.3,37.6,35.0,48.3,20.7,18.2,100,50,50,30.33,29.65,12,3,12,0.00
2013-12-2,41.2,37.8,35.5,23.8,20.8,18.5,50,50,50,30.33,30.33,17,6,17,0.00
2013-12-3,38.9,34.3,28.0,21.7,17.6,11.7,50,50,50,30.33,29.66,12,5,12,0.00
2013-12-4,38.2,36.2,33.4,21.2,19.4,16.7,50,50,50,30.33,30.33,20,13,20,0.00
2013-12-5,57.9,44.7,37.9,39.2,27.2,20.9,50,50,50,30.33,30.33,30,11,30,0.00
2013-12-6,40.1,35.3,30.5,22.7,18.5,13.9,50,50,50,30.33,30.33,23,10,23,0.00
2013-12-7,34.4,29.0,22.5,17.1,12.6,6.5,50,50,50,30.33,30.33,28,12,28,0.00
2013-12-8,32.2,26.0,21.2,15.6,9.8,5.4,50,50,50,30.33,30.33,28,10,28,0.00
2013-12-9,35.9,32.4,28.7,19.0,15.8,12.4,50,50,50,30.33,30.33,28,15,28,0.00
2013-12-10,28.6,23.1,19.2,12.3,7.2,3.6,50,50,50,30.33,30.33,29,13,29,0.00
2013-12-11,28.7,22.1,14.4,11.9,6.2,-1.0,50,50,50,30.33,30.33,31,14,31,0.00
2013-12-12,23.6,17.0,11.4,6.6,1.6,-3.7,50,50,50,30.33,30.33,26,12,26,0.00
2013-12-13,23.2,16.9,7.8,7.3,1.5,-7.0,50,50,50,30.33,30.33,23,10,23,0.00
2013-12-14,14.6,9.6,5.0,-0.8,-5.4,-9.6,50,50,50,30.33,30.33,29,16,29,0.00
2013-12-15,24.9,18.6,11.6,8.6,3.1,-3.7,50,50,50,30.33,30.33,25,10,25,0.00
2013-12-16,21.3,13.5,6.1,5.5,-1.7,-8.6,50,50,50,30.33,30.33,21,7,21,0.00
2013-12-17,26.2,19.6,6.6,9.9,4.0,-8.1,50,50,50,30.33,30.33,17,5,17,0.00
2013-12-18,35.1,28.3,21.9,18.3,12.0,6.0,50,50,50,30.33,30.33,24,8,24,0.00
2013-12-19,37.9,33.6,29.8,20.9,16.9,13.4,50,50,50,30.33,30.33,24,7,24,0.00
2013-12-20,34.2,32.4,31.1,31.8,23.1,15.4,100,71,50,30.33,29.51,23,5,23,0.21
2013-12-21,32.7,31.5,29.8,31.8,29.2,27.8,100,91,86,29.90,29.47,8,4,8,0.05
2013-12-22,34.0,29.9,27.0,30.1,27.5,23.5,93,91,80,29.91,29.34,10,1,10,0.00
2013-12-23,34.0,26.1,16.3,30.3,21.4,9.2,92,82,68,30.26,29.61,0,0,0,0.00
2013-12-24,16.3,10.9,1.9,12.5,4.6,-4.8,85,75,66,30.49,29.92,11,3,11,0.01
2013-12-25,27.3,12.6,-1.1,22.9,8.3,-6.6,92,82,77,30.51,29.83,8,4,8,0.00
2013-12-26,34.5,27.1,21.6,30.4,22.8,14.3,92,84,73,30.22,29.72,8,3,10,0.00
2013-12-27,34.0,28.0,21.7,30.3,21.9,14.4,86,78,63,30.24,29.71,14,6,19,0.00
2013-12-28,38.5,36.0,30.7,34.1,30.6,23.4,92,80,74,30.07,29.58,14,6,20,0.38
2013-12-29,42.1,33.7,21.6,32.7,25.8,12.3,86,73,60,29.91,29.28,24,7,30,0.04
2013-12-30,21.4,12.5,6.8,14.0,0.4,-8.7,73,59,37,30.22,29.48,25,8,31,0.00
2013-12-31,21.6,15.4,10.2,17.6,7.3,-0.2,85,71,56,30.20,29.66,21,9,30,0.01
2014-1-1,15.3,10.2,4.3,11.6,0.6,-10.2,85,65,50,30.39,29.91,12,7,17,0.00
2014-1-2,4.3,-0.4,-4.3,-5.5,-10.9,-16.8,77,61,42,30.35,29.78,15,9,20,0.00